createdAt,value
2017-11-16T00:04:59.883Z,17.70
2017-11-16T00:11:03.421Z,18.00
2017-11-16T00:17:07.656Z,17.53
2017-11-16T00:23:11.165Z,16.87
2017-11-16T00:29:14.603Z,17.93
2017-11-16T00:35:18.080Z,18.10
2017-11-16T00:41:22.367Z,18.33
2017-11-16T00:47:25.838Z,18.20
2017-11-16T00:53:29.291Z,18.00
2017-11-16T00:59:32.778Z,19.10
2017-11-16T01:05:36.243Z,19.00
2017-11-16T01:11:39.717Z,12.90
2017-11-16T01:17:43.188Z,12.40
2017-11-16T01:23:47.403Z,11.57
2017-11-16T01:29:50.909Z,8.50
2017-11-16T01:35:54.366Z,8.90
2017-11-16T01:41:57.831Z,7.13
2017-11-16T01:48:02.047Z,7.10
2017-11-16T01:54:05.530Z,7.47
2017-11-16T02:00:09.038Z,6.10
2017-11-16T02:06:12.491Z,6.70
2017-11-16T02:12:16.719Z,6.63
2017-11-16T02:18:20.232Z,5.30
2017-11-16T02:24:23.703Z,7.23
2017-11-16T02:30:27.230Z,7.07
2017-11-16T02:36:30.696Z,7.00
2017-11-16T02:42:34.177Z,5.93
2017-11-16T02:48:37.616Z,5.93
2017-11-16T02:54:41.057Z,6.33
2017-11-16T03:00:44.637Z,6.03
2017-11-16T03:06:48.133Z,6.63
2017-11-16T03:12:51.614Z,7.63
2017-11-16T03:18:55.084Z,7.90
2017-11-16T03:24:58.547Z,7.90
2017-11-16T03:31:01.993Z,9.17
2017-11-16T03:37:05.464Z,9.90
2017-11-16T03:43:09.692Z,10.10
2017-11-16T03:49:13.148Z,13.03
2017-11-16T03:55:17.387Z,16.53
2017-11-16T04:01:20.953Z,19.77
2017-11-16T04:07:24.424Z,19.57
2017-11-16T04:13:28.689Z,20.50
2017-11-16T04:19:32.156Z,22.40
2017-11-16T04:25:35.625Z,23.30
2017-11-16T04:31:39.082Z,21.57
2017-11-16T04:37:43.313Z,19.67
2017-11-16T04:43:46.768Z,23.30
2017-11-16T04:49:51.069Z,24.90
2017-11-16T04:55:55.306Z,23.90
2017-11-16T05:01:58.786Z,32.90
2017-11-16T05:08:02.593Z,25.10
2017-11-16T05:14:06.048Z,22.80
2017-11-16T05:20:09.505Z,21.03
2017-11-16T05:26:13.743Z,23.00
2017-11-16T05:32:17.197Z,20.33
2017-11-16T05:38:21.429Z,19.37
2017-11-16T05:44:24.897Z,18.30
2017-11-16T05:50:28.355Z,27.43
2017-11-16T05:56:32.599Z,19.07
2017-11-16T06:02:36.102Z,16.47
2017-11-16T06:08:39.567Z,16.47
2017-11-16T06:14:43.042Z,15.03
2017-11-16T06:20:46.680Z,16.93
2017-11-16T06:26:50.162Z,16.37
2017-11-16T06:32:53.642Z,18.03
2017-11-16T06:38:57.111Z,15.63
2017-11-16T06:45:00.636Z,21.33
2017-11-16T06:51:04.872Z,16.03
2017-11-16T06:57:08.332Z,16.23
2017-11-16T07:03:12.578Z,16.37
2017-11-16T07:09:16.040Z,18.23
2017-11-16T07:15:19.492Z,14.80
2017-11-16T07:21:23.749Z,16.17
2017-11-16T07:27:27.218Z,14.30
2017-11-16T07:33:30.714Z,13.10
2017-11-16T07:39:34.172Z,11.37
2017-11-16T07:45:37.647Z,11.17
2017-11-16T07:51:41.171Z,10.93
2017-11-16T07:57:44.654Z,10.90
2017-11-16T08:03:48.122Z,11.20
2017-11-16T08:09:51.575Z,10.07
2017-11-16T08:15:55.044Z,10.70
2017-11-16T08:21:59.283Z,12.90
2017-11-16T08:28:02.821Z,9.40
2017-11-16T08:34:07.051Z,11.70
2017-11-16T08:40:10.671Z,13.40
2017-11-16T08:46:14.109Z,10.77
2017-11-16T08:52:18.454Z,8.67
2017-11-16T08:58:22.001Z,11.80
2017-11-16T09:04:26.237Z,15.33
2017-11-16T09:10:29.669Z,6.43
2017-11-16T09:16:33.115Z,6.50
2017-11-16T09:22:36.696Z,5.10
2017-11-16T09:28:40.143Z,4.10
2017-11-16T09:34:44.359Z,4.50
2017-11-16T09:40:47.804Z,4.90
2017-11-16T09:46:51.255Z,4.13
2017-11-16T09:52:54.699Z,4.20
2017-11-16T09:58:58.161Z,4.80
2017-11-16T10:05:03.176Z,4.60
2017-11-16T10:11:06.665Z,4.50
2017-11-16T10:17:10.922Z,5.80
2017-11-16T10:23:14.371Z,4.10
2017-11-16T10:29:18.595Z,3.23
2017-11-16T10:35:22.101Z,4.33
2017-11-16T10:41:25.565Z,4.30
2017-11-16T10:47:29.012Z,4.47
2017-11-16T10:53:33.255Z,14.27
2017-11-16T10:59:36.729Z,19.93
2017-11-16T11:05:40.369Z,20.33
2017-11-16T11:11:43.854Z,29.77
2017-11-16T11:17:47.453Z,10.30
2017-11-16T11:23:51.681Z,6.87
2017-11-16T11:29:55.128Z,10.23
2017-11-16T11:35:58.738Z,4.30
2017-11-16T11:42:02.781Z,5.60
2017-11-16T11:48:06.234Z,5.20
2017-11-16T11:54:09.691Z,24.53
2017-11-16T12:00:13.935Z,11.07
2017-11-16T12:06:17.400Z,8.07
2017-11-16T12:12:20.853Z,19.73
2017-11-16T12:18:25.076Z,7.50
2017-11-16T12:24:28.536Z,5.90
2017-11-16T12:30:32.776Z,6.43
2017-11-16T12:36:36.442Z,5.77
2017-11-16T12:42:40.648Z,5.70
2017-11-16T12:48:44.850Z,9.87
2017-11-16T12:54:48.302Z,5.40
2017-11-16T13:00:52.549Z,14.23
2017-11-16T13:06:56.008Z,5.57
2017-11-16T13:13:00.255Z,6.20
2017-11-16T13:19:03.687Z,6.13
2017-11-16T13:25:07.950Z,7.83
2017-11-16T13:31:11.416Z,6.17
2017-11-16T13:37:14.942Z,7.70
2017-11-16T13:43:18.415Z,5.73
2017-11-16T13:49:21.896Z,6.40
2017-11-16T14:01:35.771Z,7.30
2017-11-16T14:07:40.032Z,7.07
2017-11-16T14:13:43.483Z,7.77
2017-11-16T14:19:46.956Z,7.57
2017-11-16T14:25:50.446Z,9.70
2017-11-16T14:31:53.905Z,7.90
2017-11-16T14:37:57.368Z,6.50
2017-11-16T14:44:00.880Z,6.83
2017-11-16T14:50:04.324Z,7.23
2017-11-16T14:56:07.765Z,9.30
2017-11-16T15:02:11.252Z,10.90
2017-11-16T15:08:14.713Z,10.70
2017-11-16T15:14:18.181Z,12.53
2017-11-16T15:20:22.409Z,12.50
2017-11-16T15:26:25.892Z,13.73
2017-11-16T15:32:29.373Z,14.00
2017-11-16T15:38:32.867Z,13.30
2017-11-16T15:44:36.351Z,13.17
2017-11-16T15:50:39.842Z,13.43
2017-11-16T15:56:43.311Z,12.60
2017-11-16T16:02:46.794Z,11.50
2017-11-16T16:08:50.273Z,11.60
2017-11-16T16:14:53.747Z,11.00
2017-11-16T16:20:57.244Z,10.70
2017-11-16T16:27:00.749Z,13.70
2017-11-16T16:33:04.229Z,13.80
2017-11-16T16:39:07.681Z,13.10
2017-11-16T16:45:11.932Z,11.43
2017-11-16T16:51:15.399Z,11.47
2017-11-16T16:57:19.019Z,14.23
2017-11-16T17:03:22.556Z,18.17
2017-11-16T17:09:26.021Z,18.17
2017-11-16T17:15:30.853Z,16.67
2017-11-16T17:21:34.328Z,15.57
2017-11-16T17:27:38.586Z,15.67
2017-11-16T17:33:42.040Z,14.10
2017-11-16T17:39:45.522Z,14.27
2017-11-16T17:45:48.987Z,14.17
2017-11-16T17:51:52.470Z,15.23
2017-11-16T17:57:55.959Z,18.90
2017-11-16T18:03:59.431Z,14.63
2017-11-16T18:10:03.751Z,14.83
2017-11-16T18:16:07.234Z,14.40
2017-11-16T18:22:10.716Z,16.10
2017-11-16T18:28:14.183Z,15.40
2017-11-16T18:34:18.459Z,16.00
2017-11-16T18:40:21.928Z,15.37
2017-11-16T18:46:25.430Z,20.50
2017-11-16T18:52:28.942Z,16.80
2017-11-16T18:58:32.403Z,20.27
2017-11-16T19:04:35.890Z,20.77
2017-11-16T19:10:39.372Z,20.27
2017-11-16T19:16:42.932Z,17.83
2017-11-16T19:22:46.399Z,17.30
2017-11-16T19:28:49.893Z,16.87
2017-11-16T19:34:53.375Z,16.67
2017-11-16T19:40:56.866Z,16.40
2017-11-16T19:47:00.346Z,16.63
2017-11-16T19:53:03.805Z,15.90
2017-11-16T19:59:07.308Z,17.57
2017-11-16T20:05:10.787Z,17.77
2017-11-16T20:11:14.289Z,20.60
2017-11-16T20:17:18.121Z,19.97
2017-11-16T20:23:22.364Z,18.63
2017-11-16T20:29:25.852Z,19.10
2017-11-16T20:35:29.324Z,18.30
2017-11-16T20:41:51.384Z,18.70
2017-11-16T20:48:00.297Z,20.60
2017-11-16T20:54:03.759Z,17.60
2017-11-16T21:00:07.232Z,18.43
2017-11-16T21:06:10.719Z,18.50
2017-11-16T21:12:14.175Z,20.03
2017-11-16T21:18:17.601Z,19.90
2017-11-16T21:24:21.090Z,18.50
2017-11-16T21:30:24.551Z,18.53
2017-11-16T21:36:28.047Z,18.60
2017-11-16T21:42:31.509Z,17.73
2017-11-16T21:48:34.988Z,17.97
2017-11-16T21:54:38.443Z,18.33
2017-11-16T22:00:42.672Z,18.63
2017-11-16T22:06:46.149Z,18.27
2017-11-16T22:12:49.603Z,18.70
2017-11-16T22:18:53.837Z,23.80
2017-11-16T22:24:57.311Z,21.17
2017-11-16T22:31:00.799Z,19.57
2017-11-16T22:37:04.264Z,21.10
2017-11-16T22:43:08.531Z,21.80
2017-11-16T22:49:11.988Z,20.50
2017-11-16T22:55:15.462Z,18.37
2017-11-16T23:01:18.928Z,21.47
2017-11-16T23:07:22.397Z,19.87
2017-11-16T23:13:26.658Z,19.40
2017-11-16T23:19:30.146Z,17.40
2017-11-16T23:25:33.639Z,15.57
2017-11-16T23:31:37.112Z,17.37
2017-11-16T23:37:40.594Z,17.70
2017-11-16T23:43:44.069Z,18.67
2017-11-16T23:49:47.539Z,18.87
2017-11-16T23:55:50.996Z,19.30
